sensor_id;sensor_type;location;lat;lon;timestamp;P1;durP1;ratioP1;P2;durP2;ratioP2
17424;SDS011;8830;50.978;5.058;2023-03-20T00:00:24;7.70;;;6.93;;
17424;SDS011;8830;50.978;5.058;2023-03-20T00:02:55;7.47;;;6.77;;
17424;SDS011;8830;50.978;5.058;2023-03-20T00:05:22;9.67;;;7.67;;
17424;SDS011;8830;50.978;5.058;2023-03-20T00:07:53;8.57;;;7.77;;
17424;SDS011;8830;50.978;5.058;2023-03-20T00:10:23;8.23;;;7.40;;
17424;SDS011;8830;50.978;5.058;2023-03-20T00:12:56;9.30;;;8.07;;
17424;SDS011;8830;50.978;5.058;2023-03-20T00:15:28;11.80;;;8.90;;
17424;SDS011;8830;50.978;5.058;2023-03-20T00:17:57;10.83;;;9.47;;
17424;SDS011;8830;50.978;5.058;2023-03-20T00:20:24;11.70;;;9.47;;
17424;SDS011;8830;50.978;5.058;2023-03-20T00:22:52;12.40;;;9.40;;
17424;SDS011;8830;50.978;5.058;2023-03-20T00:25:21;11.97;;;9.70;;
17424;SDS011;8830;50.978;5.058;2023-03-20T00:27:51;11.67;;;9.77;;
17424;SDS011;8830;50.978;5.058;2023-03-20T00:30:20;13.50;;;10.37;;
17424;SDS011;8830;50.978;5.058;2023-03-20T00:32:50;12.07;;;10.37;;
17424;SDS011;8830;50.978;5.058;2023-03-20T00:35:21;11.70;;;10.50;;
17424;SDS011;8830;50.978;5.058;2023-03-20T00:37:51;12.87;;;11.07;;
17424;SDS011;8830;50.978;5.058;2023-03-20T00:40:18;17.80;;;11.80;;
17424;SDS011;8830;50.978;5.058;2023-03-20T00:42:46;14.83;;;11.33;;
17424;SDS011;8830;50.978;5.058;2023-03-20T00:45:17;13.90;;;11.33;;
17424;SDS011;8830;50.978;5.058;2023-03-20T00:47:47;13.60;;;10.77;;
17424;SDS011;8830;50.978;5.058;2023-03-20T00:50:17;15.10;;;11.63;;
17424;SDS011;8830;50.978;5.058;2023-03-20T00:52:46;13.73;;;11.73;;
17424;SDS011;8830;50.978;5.058;2023-03-20T00:55:13;15.17;;;11.13;;
17424;SDS011;8830;50.978;5.058;2023-03-20T00:57:42;12.13;;;10.40;;
17424;SDS011;8830;50.978;5.058;2023-03-20T01:03:12;16.00;;;11.43;;
17424;SDS011;8830;50.978;5.058;2023-03-20T01:05:42;11.80;;;10.03;;
17424;SDS011;8830;50.978;5.058;2023-03-20T01:08:11;17.73;;;11.77;;
17424;SDS011;8830;50.978;5.058;2023-03-20T01:10:39;13.30;;;11.00;;
17424;SDS011;8830;50.978;5.058;2023-03-20T01:13:12;12.73;;;10.30;;
17424;SDS011;8830;50.978;5.058;2023-03-20T01:15:45;11.90;;;10.43;;
17424;SDS011;8830;50.978;5.058;2023-03-20T01:18:13;15.10;;;10.50;;
17424;SDS011;8830;50.978;5.058;2023-03-20T01:20:41;18.33;;;11.03;;
17424;SDS011;8830;50.978;5.058;2023-03-20T01:23:10;14.30;;;9.77;;
17424;SDS011;8830;50.978;5.058;2023-03-20T01:25:37;14.37;;;9.33;;
17424;SDS011;8830;50.978;5.058;2023-03-20T01:28:10;10.63;;;8.83;;
17424;SDS011;8830;50.978;5.058;2023-03-20T01:30:41;11.87;;;8.90;;
17424;SDS011;8830;50.978;5.058;2023-03-20T01:33:13;14.03;;;8.60;;
17424;SDS011;8830;50.978;5.058;2023-03-20T01:35:41;10.23;;;8.30;;
17424;SDS011;8830;50.978;5.058;2023-03-20T01:38:10;9.77;;;8.70;;
17424;SDS011;8830;50.978;5.058;2023-03-20T01:40:45;10.07;;;8.77;;
17424;SDS011;8830;50.978;5.058;2023-03-20T01:43:19;8.17;;;7.10;;
17424;SDS011;8830;50.978;5.058;2023-03-20T01:45:51;10.03;;;7.93;;
17424;SDS011;8830;50.978;5.058;2023-03-20T01:48:26;12.30;;;8.47;;
17424;SDS011;8830;50.978;5.058;2023-03-20T01:51:02;12.60;;;8.50;;
17424;SDS011;8830;50.978;5.058;2023-03-20T01:53:29;9.90;;;7.70;;
17424;SDS011;8830;50.978;5.058;2023-03-20T01:55:56;8.47;;;7.67;;
17424;SDS011;8830;50.978;5.058;2023-03-20T01:58:26;10.00;;;8.13;;
17424;SDS011;8830;50.978;5.058;2023-03-20T02:00:57;8.43;;;7.50;;
17424;SDS011;8830;50.978;5.058;2023-03-20T02:03:26;9.50;;;7.70;;
17424;SDS011;8830;50.978;5.058;2023-03-20T02:05:53;7.53;;;6.83;;
17424;SDS011;8830;50.978;5.058;2023-03-20T02:08:23;9.10;;;7.47;;
17424;SDS011;8830;50.978;5.058;2023-03-20T02:10:53;8.23;;;7.37;;
17424;SDS011;8830;50.978;5.058;2023-03-20T02:13:21;7.93;;;7.17;;
17424;SDS011;8830;50.978;5.058;2023-03-20T02:15:54;9.20;;;7.20;;
17424;SDS011;8830;50.978;5.058;2023-03-20T02:18:24;6.93;;;6.23;;
17424;SDS011;8830;50.978;5.058;2023-03-20T02:20:59;7.23;;;6.63;;
17424;SDS011;8830;50.978;5.058;2023-03-20T02:24:00;7.33;;;6.70;;
17424;SDS011;8830;50.978;5.058;2023-03-20T02:26:49;13.80;;;7.30;;
17424;SDS011;8830;50.978;5.058;2023-03-20T02:29:40;8.83;;;6.57;;
17424;SDS011;8830;50.978;5.058;2023-03-20T02:39:00;12.53;;;6.97;;
17424;SDS011;8830;50.978;5.058;2023-03-20T02:41:48;14.97;;;7.00;;
17424;SDS011;8830;50.978;5.058;2023-03-20T02:44:22;11.77;;;7.83;;
17424;SDS011;8830;50.978;5.058;2023-03-20T02:46:53;10.53;;;7.10;;
17424;SDS011;8830;50.978;5.058;2023-03-20T02:49:30;12.67;;;7.47;;
17424;SDS011;8830;50.978;5.058;2023-03-20T02:52:16;8.43;;;6.50;;
17424;SDS011;8830;50.978;5.058;2023-03-20T02:54:50;8.50;;;6.83;;
17424;SDS011;8830;50.978;5.058;2023-03-20T02:57:30;7.40;;;6.60;;
17424;SDS011;8830;50.978;5.058;2023-03-20T03:00:07;8.43;;;6.43;;
17424;SDS011;8830;50.978;5.058;2023-03-20T03:02:39;7.83;;;6.50;;
17424;SDS011;8830;50.978;5.058;2023-03-20T03:05:11;9.23;;;6.67;;
17424;SDS011;8830;50.978;5.058;2023-03-20T03:07:41;9.70;;;7.23;;
17424;SDS011;8830;50.978;5.058;2023-03-20T03:10:15;7.93;;;7.03;;
17424;SDS011;8830;50.978;5.058;2023-03-20T03:12:47;8.47;;;7.43;;
17424;SDS011;8830;50.978;5.058;2023-03-20T03:15:18;10.43;;;7.17;;
17424;SDS011;8830;50.978;5.058;2023-03-20T03:17:53;8.70;;;7.40;;
17424;SDS011;8830;50.978;5.058;2023-03-20T03:20:23;9.00;;;7.10;;
17424;SDS011;8830;50.978;5.058;2023-03-20T03:22:54;8.57;;;7.33;;
17424;SDS011;8830;50.978;5.058;2023-03-20T03:25:26;7.67;;;7.07;;
17424;SDS011;8830;50.978;5.058;2023-03-20T03:27:57;9.77;;;7.47;;
17424;SDS011;8830;50.978;5.058;2023-03-20T03:30:29;10.03;;;8.17;;
17424;SDS011;8830;50.978;5.058;2023-03-20T03:33:02;9.03;;;7.23;;
17424;SDS011;8830;50.978;5.058;2023-03-20T03:35:37;11.20;;;7.97;;
17424;SDS011;8830;50.978;5.058;2023-03-20T03:38:11;9.63;;;7.57;;
17424;SDS011;8830;50.978;5.058;2023-03-20T03:40:55;10.87;;;8.00;;
17424;SDS011;8830;50.978;5.058;2023-03-20T03:43:33;8.40;;;7.60;;
17424;SDS011;8830;50.978;5.058;2023-03-20T03:46:07;10.77;;;8.67;;
17424;SDS011;8830;50.978;5.058;2023-03-20T03:48:39;10.10;;;8.30;;
17424;SDS011;8830;50.978;5.058;2023-03-20T03:51:10;11.73;;;8.83;;
17424;SDS011;8830;50.978;5.058;2023-03-20T03:53:44;9.50;;;8.40;;
17424;SDS011;8830;50.978;5.058;2023-03-20T03:56:19;13.27;;;8.87;;
17424;SDS011;8830;50.978;5.058;2023-03-20T03:58:50;11.33;;;9.43;;
17424;SDS011;8830;50.978;5.058;2023-03-20T04:01:21;14.33;;;9.67;;
17424;SDS011;8830;50.978;5.058;2023-03-20T04:03:51;14.73;;;9.33;;
17424;SDS011;8830;50.978;5.058;2023-03-20T04:06:21;10.37;;;9.13;;
17424;SDS011;8830;50.978;5.058;2023-03-20T04:08:50;10.57;;;9.40;;
17424;SDS011;8830;50.978;5.058;2023-03-20T04:11:20;13.67;;;9.33;;
17424;SDS011;8830;50.978;5.058;2023-03-20T04:13:50;14.07;;;9.13;;
17424;SDS011;8830;50.978;5.058;2023-03-20T04:16:21;17.37;;;9.83;;
17424;SDS011;8830;50.978;5.058;2023-03-20T04:18:49;9.63;;;8.33;;
17424;SDS011;8830;50.978;5.058;2023-03-20T04:21:17;15.47;;;9.80;;
17424;SDS011;8830;50.978;5.058;2023-03-20T04:23:43;14.50;;;9.77;;
17424;SDS011;8830;50.978;5.058;2023-03-20T04:26:15;13.13;;;9.57;;
17424;SDS011;8830;50.978;5.058;2023-03-20T04:28:43;16.57;;;9.87;;
17424;SDS011;8830;50.978;5.058;2023-03-20T04:31:10;15.30;;;10.20;;
17424;SDS011;8830;50.978;5.058;2023-03-20T04:33:38;12.27;;;9.73;;
17424;SDS011;8830;50.978;5.058;2023-03-20T04:36:08;14.53;;;9.53;;
17424;SDS011;8830;50.978;5.058;2023-03-20T04:38:38;22.67;;;10.93;;
17424;SDS011;8830;50.978;5.058;2023-03-20T04:41:05;14.07;;;9.83;;
17424;SDS011;8830;50.978;5.058;2023-03-20T04:43:33;15.97;;;10.90;;
17424;SDS011;8830;50.978;5.058;2023-03-20T04:46:01;17.80;;;9.93;;
17424;SDS011;8830;50.978;5.058;2023-03-20T04:48:28;16.60;;;10.60;;
17424;SDS011;8830;50.978;5.058;2023-03-20T04:50:55;14.37;;;10.33;;
17424;SDS011;8830;50.978;5.058;2023-03-20T04:53:22;20.90;;;11.70;;
17424;SDS011;8830;50.978;5.058;2023-03-20T04:55:49;17.70;;;11.10;;
17424;SDS011;8830;50.978;5.058;2023-03-20T04:58:16;15.23;;;11.20;;
17424;SDS011;8830;50.978;5.058;2023-03-20T05:00:43;18.90;;;10.80;;
17424;SDS011;8830;50.978;5.058;2023-03-20T05:03:12;15.50;;;10.83;;
17424;SDS011;8830;50.978;5.058;2023-03-20T05:05:39;26.07;;;13.13;;
17424;SDS011;8830;50.978;5.058;2023-03-20T05:08:07;20.10;;;11.17;;
17424;SDS011;8830;50.978;5.058;2023-03-20T05:10:34;17.97;;;11.83;;
17424;SDS011;8830;50.978;5.058;2023-03-20T05:13:02;23.63;;;12.57;;
17424;SDS011;8830;50.978;5.058;2023-03-20T05:15:29;22.03;;;10.87;;
17424;SDS011;8830;50.978;5.058;2023-03-20T05:17:56;22.10;;;13.17;;
17424;SDS011;8830;50.978;5.058;2023-03-20T05:20:24;18.57;;;10.97;;
17424;SDS011;8830;50.978;5.058;2023-03-20T05:22:51;19.00;;;11.83;;
17424;SDS011;8830;50.978;5.058;2023-03-20T05:25:19;15.83;;;10.77;;
17424;SDS011;8830;50.978;5.058;2023-03-20T05:27:46;19.33;;;11.67;;
17424;SDS011;8830;50.978;5.058;2023-03-20T05:30:13;18.47;;;11.40;;
17424;SDS011;8830;50.978;5.058;2023-03-20T05:32:40;20.90;;;11.33;;
17424;SDS011;8830;50.978;5.058;2023-03-20T05:35:07;19.57;;;11.40;;
17424;SDS011;8830;50.978;5.058;2023-03-20T05:37:39;18.30;;;11.67;;
17424;SDS011;8830;50.978;5.058;2023-03-20T05:40:06;17.40;;;12.10;;
17424;SDS011;8830;50.978;5.058;2023-03-20T05:42:36;15.83;;;10.87;;
17424;SDS011;8830;50.978;5.058;2023-03-20T05:47:33;25.03;;;12.73;;
17424;SDS011;8830;50.978;5.058;2023-03-20T05:50:01;21.37;;;12.70;;
17424;SDS011;8830;50.978;5.058;2023-03-20T05:52:28;17.47;;;11.30;;
17424;SDS011;8830;50.978;5.058;2023-03-20T05:54:57;17.43;;;10.70;;
17424;SDS011;8830;50.978;5.058;2023-03-20T05:57:25;19.67;;;11.90;;
17424;SDS011;8830;50.978;5.058;2023-03-20T05:59:52;19.60;;;11.67;;
17424;SDS011;8830;50.978;5.058;2023-03-20T06:02:19;25.73;;;11.23;;
17424;SDS011;8830;50.978;5.058;2023-03-20T06:04:46;18.17;;;9.63;;
17424;SDS011;8830;50.978;5.058;2023-03-20T06:07:13;19.30;;;10.67;;
17424;SDS011;8830;50.978;5.058;2023-03-20T06:09:41;22.13;;;11.67;;
17424;SDS011;8830;50.978;5.058;2023-03-20T06:12:10;17.70;;;11.30;;
17424;SDS011;8830;50.978;5.058;2023-03-20T06:14:37;16.70;;;10.77;;
17424;SDS011;8830;50.978;5.058;2023-03-20T06:17:04;14.90;;;10.10;;
17424;SDS011;8830;50.978;5.058;2023-03-20T06:19:32;21.73;;;10.47;;
17424;SDS011;8830;50.978;5.058;2023-03-20T06:21:59;18.93;;;11.03;;
17424;SDS011;8830;50.978;5.058;2023-03-20T06:24:27;21.33;;;10.20;;
17424;SDS011;8830;50.978;5.058;2023-03-20T06:26:54;16.43;;;10.13;;
17424;SDS011;8830;50.978;5.058;2023-03-20T06:29:22;17.40;;;10.53;;
17424;SDS011;8830;50.978;5.058;2023-03-20T06:31:49;18.37;;;10.90;;
17424;SDS011;8830;50.978;5.058;2023-03-20T06:34:16;17.37;;;9.90;;
17424;SDS011;8830;50.978;5.058;2023-03-20T06:36:43;14.83;;;9.80;;
17424;SDS011;8830;50.978;5.058;2023-03-20T06:39:11;23.97;;;11.60;;
17424;SDS011;8830;50.978;5.058;2023-03-20T06:41:38;22.07;;;11.17;;
17424;SDS011;8830;50.978;5.058;2023-03-20T06:44:05;17.57;;;9.60;;
17424;SDS011;8830;50.978;5.058;2023-03-20T06:46:34;16.30;;;9.73;;
17424;SDS011;8830;50.978;5.058;2023-03-20T06:49:01;18.70;;;8.97;;
17424;SDS011;8830;50.978;5.058;2023-03-20T06:51:28;19.80;;;10.33;;
17424;SDS011;8830;50.978;5.058;2023-03-20T06:53:55;19.97;;;9.17;;
17424;SDS011;8830;50.978;5.058;2023-03-20T06:56:24;17.53;;;9.90;;
17424;SDS011;8830;50.978;5.058;2023-03-20T06:58:51;21.30;;;9.77;;
17424;SDS011;8830;50.978;5.058;2023-03-20T07:01:18;16.90;;;9.63;;
17424;SDS011;8830;50.978;5.058;2023-03-20T07:03:46;18.53;;;8.87;;
17424;SDS011;8830;50.978;5.058;2023-03-20T07:06:15;16.57;;;8.90;;
17424;SDS011;8830;50.978;5.058;2023-03-20T07:08:42;33.03;;;20.50;;
17424;SDS011;8830;50.978;5.058;2023-03-20T07:11:12;17.03;;;9.00;;
17424;SDS011;8830;50.978;5.058;2023-03-20T07:13:39;15.17;;;8.20;;
17424;SDS011;8830;50.978;5.058;2023-03-20T07:16:07;15.60;;;8.77;;
17424;SDS011;8830;50.978;5.058;2023-03-20T07:18:34;19.63;;;7.77;;
17424;SDS011;8830;50.978;5.058;2023-03-20T07:21:04;17.10;;;8.47;;
17424;SDS011;8830;50.978;5.058;2023-03-20T07:23:32;13.40;;;7.00;;
17424;SDS011;8830;50.978;5.058;2023-03-20T07:26:00;14.77;;;7.63;;
17424;SDS011;8830;50.978;5.058;2023-03-20T07:28:27;16.60;;;6.97;;
17424;SDS011;8830;50.978;5.058;2023-03-20T07:30:55;12.63;;;7.10;;
17424;SDS011;8830;50.978;5.058;2023-03-20T07:33:21;16.10;;;7.30;;
17424;SDS011;8830;50.978;5.058;2023-03-20T07:35:50;20.67;;;8.33;;
17424;SDS011;8830;50.978;5.058;2023-03-20T07:38:19;12.57;;;7.17;;
17424;SDS011;8830;50.978;5.058;2023-03-20T07:40:46;12.23;;;5.87;;
17424;SDS011;8830;50.978;5.058;2023-03-20T07:43:14;12.97;;;6.47;;
17424;SDS011;8830;50.978;5.058;2023-03-20T07:45:41;9.60;;;7.00;;
17424;SDS011;8830;50.978;5.058;2023-03-20T07:48:09;13.67;;;6.50;;
17424;SDS011;8830;50.978;5.058;2023-03-20T07:50:36;14.77;;;5.03;;
17424;SDS011;8830;50.978;5.058;2023-03-20T07:53:03;11.53;;;5.30;;
17424;SDS011;8830;50.978;5.058;2023-03-20T07:55:41;10.07;;;5.37;;
17424;SDS011;8830;50.978;5.058;2023-03-20T07:58:12;12.83;;;5.77;;
17424;SDS011;8830;50.978;5.058;2023-03-20T08:00:39;10.07;;;4.77;;
17424;SDS011;8830;50.978;5.058;2023-03-20T08:03:07;13.30;;;5.27;;
17424;SDS011;8830;50.978;5.058;2023-03-20T08:05:34;14.80;;;5.27;;
17424;SDS011;8830;50.978;5.058;2023-03-20T08:08:02;11.70;;;4.40;;
17424;SDS011;8830;50.978;5.058;2023-03-20T08:10:30;9.10;;;4.80;;
17424;SDS011;8830;50.978;5.058;2023-03-20T08:12:59;11.00;;;4.93;;
17424;SDS011;8830;50.978;5.058;2023-03-20T08:15:26;13.70;;;5.13;;
17424;SDS011;8830;50.978;5.058;2023-03-20T08:17:53;8.40;;;4.80;;
17424;SDS011;8830;50.978;5.058;2023-03-20T08:20:23;9.57;;;4.70;;
17424;SDS011;8830;50.978;5.058;2023-03-20T08:22:50;10.27;;;4.87;;
17424;SDS011;8830;50.978;5.058;2023-03-20T08:25:17;17.63;;;5.43;;
17424;SDS011;8830;50.978;5.058;2023-03-20T08:27:45;7.77;;;4.60;;
17424;SDS011;8830;50.978;5.058;2023-03-20T08:30:14;11.23;;;5.00;;
17424;SDS011;8830;50.978;5.058;2023-03-20T08:32:41;11.83;;;5.37;;
17424;SDS011;8830;50.978;5.058;2023-03-20T08:35:08;12.33;;;4.67;;
17424;SDS011;8830;50.978;5.058;2023-03-20T08:37:38;13.20;;;6.80;;
17424;SDS011;8830;50.978;5.058;2023-03-20T08:40:06;10.90;;;4.80;;
17424;SDS011;8830;50.978;5.058;2023-03-20T08:42:33;8.03;;;4.13;;
17424;SDS011;8830;50.978;5.058;2023-03-20T08:45:01;11.73;;;4.83;;
17424;SDS011;8830;50.978;5.058;2023-03-20T08:47:31;14.83;;;5.77;;
17424;SDS011;8830;50.978;5.058;2023-03-20T08:50:01;8.33;;;3.73;;
17424;SDS011;8830;50.978;5.058;2023-03-20T08:52:29;11.63;;;3.93;;
17424;SDS011;8830;50.978;5.058;2023-03-20T08:54:56;12.60;;;4.30;;
17424;SDS011;8830;50.978;5.058;2023-03-20T08:57:24;10.67;;;4.00;;
17424;SDS011;8830;50.978;5.058;2023-03-20T08:59:51;14.70;;;4.33;;
17424;SDS011;8830;50.978;5.058;2023-03-20T09:02:19;10.20;;;3.30;;
17424;SDS011;8830;50.978;5.058;2023-03-20T09:04:48;9.30;;;4.13;;
17424;SDS011;8830;50.978;5.058;2023-03-20T09:07:15;10.20;;;4.37;;
17424;SDS011;8830;50.978;5.058;2023-03-20T09:09:42;8.83;;;3.77;;
17424;SDS011;8830;50.978;5.058;2023-03-20T09:12:27;7.33;;;3.80;;
17424;SDS011;8830;50.978;5.058;2023-03-20T09:14:56;7.53;;;3.87;;
17424;SDS011;8830;50.978;5.058;2023-03-20T09:17:24;9.63;;;4.47;;
17424;SDS011;8830;50.978;5.058;2023-03-20T09:19:57;12.47;;;4.00;;
17424;SDS011;8830;50.978;5.058;2023-03-20T09:22:24;8.90;;;3.63;;
17424;SDS011;8830;50.978;5.058;2023-03-20T09:24:53;6.47;;;3.47;;
17424;SDS011;8830;50.978;5.058;2023-03-20T09:27:20;10.10;;;3.17;;
17424;SDS011;8830;50.978;5.058;2023-03-20T09:29:48;10.67;;;4.37;;
17424;SDS011;8830;50.978;5.058;2023-03-20T09:32:16;10.10;;;4.40;;
17424;SDS011;8830;50.978;5.058;2023-03-20T09:34:44;8.10;;;4.20;;
17424;SDS011;8830;50.978;5.058;2023-03-20T09:37:13;10.23;;;3.97;;
17424;SDS011;8830;50.978;5.058;2023-03-20T09:39:48;9.57;;;3.60;;
17424;SDS011;8830;50.978;5.058;2023-03-20T09:42:19;11.53;;;4.23;;
17424;SDS011;8830;50.978;5.058;2023-03-20T09:44:59;7.53;;;3.97;;
17424;SDS011;8830;50.978;5.058;2023-03-20T09:47:31;9.33;;;3.23;;
17424;SDS011;8830;50.978;5.058;2023-03-20T09:50:20;11.63;;;4.00;;
17424;SDS011;8830;50.978;5.058;2023-03-20T09:53:00;7.63;;;3.90;;
17424;SDS011;8830;50.978;5.058;2023-03-20T09:55:32;8.57;;;3.47;;
17424;SDS011;8830;50.978;5.058;2023-03-20T09:58:05;13.03;;;4.77;;
17424;SDS011;8830;50.978;5.058;2023-03-20T10:00:37;8.93;;;4.10;;
17424;SDS011;8830;50.978;5.058;2023-03-20T10:03:14;9.30;;;3.43;;
17424;SDS011;8830;50.978;5.058;2023-03-20T10:05:45;9.97;;;3.30;;
17424;SDS011;8830;50.978;5.058;2023-03-20T10:08:21;9.30;;;3.37;;
17424;SDS011;8830;50.978;5.058;2023-03-20T10:10:54;8.97;;;3.80;;
17424;SDS011;8830;50.978;5.058;2023-03-20T10:13:46;11.87;;;4.03;;
17424;SDS011;8830;50.978;5.058;2023-03-20T10:16:25;8.10;;;2.90;;
17424;SDS011;8830;50.978;5.058;2023-03-20T10:19:01;9.27;;;3.93;;
17424;SDS011;8830;50.978;5.058;2023-03-20T10:21:36;10.50;;;4.40;;
17424;SDS011;8830;50.978;5.058;2023-03-20T10:24:10;10.90;;;4.20;;
17424;SDS011;8830;50.978;5.058;2023-03-20T10:26:45;7.73;;;4.03;;
17424;SDS011;8830;50.978;5.058;2023-03-20T10:29:14;9.47;;;3.73;;
17424;SDS011;8830;50.978;5.058;2023-03-20T10:31:51;8.47;;;4.03;;
17424;SDS011;8830;50.978;5.058;2023-03-20T10:34:29;10.57;;;4.00;;
17424;SDS011;8830;50.978;5.058;2023-03-20T10:37:13;8.80;;;4.60;;
17424;SDS011;8830;50.978;5.058;2023-03-20T10:39:59;11.23;;;4.07;;
17424;SDS011;8830;50.978;5.058;2023-03-20T10:42:37;8.17;;;3.97;;
17424;SDS011;8830;50.978;5.058;2023-03-20T10:45:13;9.27;;;4.13;;
17424;SDS011;8830;50.978;5.058;2023-03-20T10:47:55;10.13;;;4.17;;
17424;SDS011;8830;50.978;5.058;2023-03-20T10:50:27;10.57;;;4.00;;
17424;SDS011;8830;50.978;5.058;2023-03-20T10:52:58;12.83;;;4.00;;
17424;SDS011;8830;50.978;5.058;2023-03-20T10:55:29;7.20;;;3.83;;
17424;SDS011;8830;50.978;5.058;2023-03-20T10:58:05;6.80;;;3.47;;
17424;SDS011;8830;50.978;5.058;2023-03-20T11:00:41;7.40;;;3.30;;
17424;SDS011;8830;50.978;5.058;2023-03-20T11:03:14;7.27;;;4.20;;
17424;SDS011;8830;50.978;5.058;2023-03-20T11:05:47;7.67;;;4.07;;
17424;SDS011;8830;50.978;5.058;2023-03-20T11:08:20;10.77;;;4.00;;
17424;SDS011;8830;50.978;5.058;2023-03-20T11:10:58;14.93;;;4.27;;
17424;SDS011;8830;50.978;5.058;2023-03-20T11:13:28;7.40;;;3.70;;
17424;SDS011;8830;50.978;5.058;2023-03-20T11:16:10;10.37;;;4.27;;
17424;SDS011;8830;50.978;5.058;2023-03-20T11:18:44;11.97;;;3.97;;
17424;SDS011;8830;50.978;5.058;2023-03-20T11:21:17;7.20;;;4.03;;
17424;SDS011;8830;50.978;5.058;2023-03-20T11:23:46;12.83;;;4.50;;
17424;SDS011;8830;50.978;5.058;2023-03-20T11:26:15;13.00;;;3.73;;
17424;SDS011;8830;50.978;5.058;2023-03-20T11:28:47;11.77;;;4.50;;
17424;SDS011;8830;50.978;5.058;2023-03-20T11:31:18;10.33;;;4.33;;
17424;SDS011;8830;50.978;5.058;2023-03-20T11:33:50;11.43;;;3.83;;
17424;SDS011;8830;50.978;5.058;2023-03-20T11:36:25;8.57;;;3.70;;
17424;SDS011;8830;50.978;5.058;2023-03-20T11:38:57;8.70;;;3.93;;
17424;SDS011;8830;50.978;5.058;2023-03-20T11:41:32;11.93;;;4.50;;
17424;SDS011;8830;50.978;5.058;2023-03-20T11:43:59;9.97;;;3.67;;
17424;SDS011;8830;50.978;5.058;2023-03-20T11:46:26;11.60;;;3.57;;
17424;SDS011;8830;50.978;5.058;2023-03-20T11:49:04;9.23;;;3.40;;
17424;SDS011;8830;50.978;5.058;2023-03-20T11:51:33;10.13;;;3.17;;
17424;SDS011;8830;50.978;5.058;2023-03-20T11:54:02;9.23;;;3.37;;
17424;SDS011;8830;50.978;5.058;2023-03-20T11:56:33;10.13;;;3.80;;
17424;SDS011;8830;50.978;5.058;2023-03-20T11:59:02;13.47;;;4.20;;
17424;SDS011;8830;50.978;5.058;2023-03-20T12:01:42;8.27;;;2.50;;
17424;SDS011;8830;50.978;5.058;2023-03-20T12:04:13;10.97;;;3.80;;
17424;SDS011;8830;50.978;5.058;2023-03-20T12:06:43;9.63;;;3.13;;
17424;SDS011;8830;50.978;5.058;2023-03-20T12:09:23;11.33;;;2.93;;
17424;SDS011;8830;50.978;5.058;2023-03-20T12:11:59;13.07;;;3.20;;
17424;SDS011;8830;50.978;5.058;2023-03-20T12:14:33;13.43;;;3.27;;
17424;SDS011;8830;50.978;5.058;2023-03-20T12:20:06;8.57;;;3.03;;
17424;SDS011;8830;50.978;5.058;2023-03-20T12:22:42;13.63;;;3.57;;
17424;SDS011;8830;50.978;5.058;2023-03-20T12:25:17;10.43;;;2.80;;
17424;SDS011;8830;50.978;5.058;2023-03-20T12:27:51;9.97;;;3.23;;
17424;SDS011;8830;50.978;5.058;2023-03-20T12:30:25;11.13;;;2.90;;
17424;SDS011;8830;50.978;5.058;2023-03-20T12:32:57;9.97;;;2.70;;
17424;SDS011;8830;50.978;5.058;2023-03-20T12:35:29;11.03;;;3.93;;
17424;SDS011;8830;50.978;5.058;2023-03-20T12:37:59;8.83;;;2.83;;
17424;SDS011;8830;50.978;5.058;2023-03-20T12:40:28;10.90;;;2.40;;
17424;SDS011;8830;50.978;5.058;2023-03-20T12:43:04;17.37;;;2.77;;
17424;SDS011;8830;50.978;5.058;2023-03-20T12:45:42;17.90;;;4.03;;
17424;SDS011;8830;50.978;5.058;2023-03-20T12:48:23;11.23;;;2.23;;
17424;SDS011;8830;50.978;5.058;2023-03-20T12:51:09;9.73;;;2.33;;
17424;SDS011;8830;50.978;5.058;2023-03-20T12:53:46;5.70;;;2.27;;
17424;SDS011;8830;50.978;5.058;2023-03-20T12:56:23;5.07;;;2.37;;
17424;SDS011;8830;50.978;5.058;2023-03-20T12:58:59;7.37;;;2.40;;
17424;SDS011;8830;50.978;5.058;2023-03-20T13:01:31;12.93;;;3.50;;
17424;SDS011;8830;50.978;5.058;2023-03-20T13:04:09;13.87;;;3.40;;
17424;SDS011;8830;50.978;5.058;2023-03-20T13:06:50;6.70;;;2.30;;
17424;SDS011;8830;50.978;5.058;2023-03-20T13:09:32;13.07;;;3.97;;
17424;SDS011;8830;50.978;5.058;2023-03-20T13:12:29;8.60;;;3.03;;
17424;SDS011;8830;50.978;5.058;2023-03-20T13:15:06;7.40;;;2.60;;
17424;SDS011;8830;50.978;5.058;2023-03-20T13:17:45;9.10;;;2.80;;
17424;SDS011;8830;50.978;5.058;2023-03-20T13:20:21;7.97;;;2.70;;
17424;SDS011;8830;50.978;5.058;2023-03-20T13:23:04;9.17;;;3.20;;
17424;SDS011;8830;50.978;5.058;2023-03-20T13:25:41;7.87;;;2.80;;
17424;SDS011;8830;50.978;5.058;2023-03-20T13:28:23;9.43;;;2.90;;
17424;SDS011;8830;50.978;5.058;2023-03-20T13:30:57;5.17;;;2.43;;
17424;SDS011;8830;50.978;5.058;2023-03-20T13:33:36;8.57;;;2.70;;
17424;SDS011;8830;50.978;5.058;2023-03-20T13:36:11;6.67;;;2.87;;
17424;SDS011;8830;50.978;5.058;2023-03-20T13:38:45;9.47;;;2.80;;
17424;SDS011;8830;50.978;5.058;2023-03-20T13:41:15;10.60;;;3.10;;
17424;SDS011;8830;50.978;5.058;2023-03-20T13:43:44;6.47;;;2.80;;
17424;SDS011;8830;50.978;5.058;2023-03-20T13:46:17;13.93;;;3.50;;
17424;SDS011;8830;50.978;5.058;2023-03-20T13:48:47;5.20;;;2.47;;
17424;SDS011;8830;50.978;5.058;2023-03-20T13:51:19;12.83;;;3.20;;
17424;SDS011;8830;50.978;5.058;2023-03-20T13:53:56;11.60;;;3.00;;
17424;SDS011;8830;50.978;5.058;2023-03-20T13:56:35;7.40;;;2.60;;
17424;SDS011;8830;50.978;5.058;2023-03-20T13:59:29;7.60;;;3.03;;
17424;SDS011;8830;50.978;5.058;2023-03-20T14:02:18;9.07;;;3.57;;
17424;SDS011;8830;50.978;5.058;2023-03-20T14:04:57;8.53;;;2.90;;
17424;SDS011;8830;50.978;5.058;2023-03-20T14:07:28;13.67;;;3.07;;
17424;SDS011;8830;50.978;5.058;2023-03-20T14:09:57;6.93;;;2.67;;
17424;SDS011;8830;50.978;5.058;2023-03-20T14:13:02;11.97;;;3.80;;
17424;SDS011;8830;50.978;5.058;2023-03-20T14:15:32;7.83;;;3.03;;
17424;SDS011;8830;50.978;5.058;2023-03-20T14:18:06;6.80;;;3.30;;
17424;SDS011;8830;50.978;5.058;2023-03-20T14:20:40;7.83;;;2.90;;
17424;SDS011;8830;50.978;5.058;2023-03-20T14:23:14;8.33;;;2.93;;
17424;SDS011;8830;50.978;5.058;2023-03-20T14:25:44;11.40;;;3.30;;
17424;SDS011;8830;50.978;5.058;2023-03-20T14:28:23;14.50;;;2.83;;
17424;SDS011;8830;50.978;5.058;2023-03-20T14:31:12;8.00;;;3.77;;
17424;SDS011;8830;50.978;5.058;2023-03-20T14:33:53;11.60;;;3.33;;
17424;SDS011;8830;50.978;5.058;2023-03-20T14:36:26;9.10;;;4.57;;
17424;SDS011;8830;50.978;5.058;2023-03-20T14:39:04;13.40;;;3.70;;
17424;SDS011;8830;50.978;5.058;2023-03-20T14:41:41;10.33;;;4.13;;
17424;SDS011;8830;50.978;5.058;2023-03-20T14:44:30;11.93;;;3.70;;
17424;SDS011;8830;50.978;5.058;2023-03-20T14:47:15;7.70;;;3.07;;
17424;SDS011;8830;50.978;5.058;2023-03-20T14:49:50;16.27;;;4.00;;
17424;SDS011;8830;50.978;5.058;2023-03-20T14:52:28;12.93;;;3.27;;
17424;SDS011;8830;50.978;5.058;2023-03-20T14:55:14;10.23;;;3.80;;
17424;SDS011;8830;50.978;5.058;2023-03-20T14:57:56;15.17;;;4.40;;
17424;SDS011;8830;50.978;5.058;2023-03-20T15:00:27;9.37;;;3.73;;
17424;SDS011;8830;50.978;5.058;2023-03-20T15:03:01;10.63;;;3.67;;
17424;SDS011;8830;50.978;5.058;2023-03-20T15:05:33;8.80;;;3.17;;
17424;SDS011;8830;50.978;5.058;2023-03-20T15:08:04;12.37;;;4.40;;
17424;SDS011;8830;50.978;5.058;2023-03-20T15:10:34;7.93;;;3.70;;
17424;SDS011;8830;50.978;5.058;2023-03-20T15:13:03;13.87;;;4.57;;
17424;SDS011;8830;50.978;5.058;2023-03-20T15:15:32;7.33;;;3.80;;
17424;SDS011;8830;50.978;5.058;2023-03-20T15:18:04;12.67;;;3.83;;
17424;SDS011;8830;50.978;5.058;2023-03-20T15:20:42;13.63;;;4.07;;
17424;SDS011;8830;50.978;5.058;2023-03-20T15:23:10;11.47;;;3.90;;
17424;SDS011;8830;50.978;5.058;2023-03-20T15:25:37;15.03;;;4.50;;
17424;SDS011;8830;50.978;5.058;2023-03-20T15:28:10;10.57;;;4.40;;
17424;SDS011;8830;50.978;5.058;2023-03-20T15:30:39;12.17;;;4.77;;
17424;SDS011;8830;50.978;5.058;2023-03-20T15:33:09;11.07;;;4.50;;